MET'MAP v2.0
soon released !

Expected late october,
this new version will be
more efficient, smarter,
and hosted on a brand new
server x3 powerfull...
...and still free !


Not compatible ?
Try the mobile version !

LOG IN : | Subscribe | Disclaimer | Who is Orbifly ? |
ICAO code :

TAF - LZIB Bratislava - 19 Oct 2019 14:08 UTC - Data Source NOAA   


- Airport Elevation : 436 ft
- IATA code : BTS
- No reported NOTAMs.


LZIB - Bratislava

Latest METAR recorded : 2015/08/11 08:00 LZIB 110800Z VRB01KT CAVOK 30/12 Q1015 NOSIG
TAF TAF LZIB
Valid from the 19 at 12:00 until the 20 at 12:00 UTC


191100Z 1912/2012 13008KT 3000 BR SCT002 OVC005
TEMPO 1912/1916 6000 BKN015
BECMG 1918/1920 1600 BR FEW001 BKN007
TEMPO 1922/2006 VRB02KT 0400 FG BKN001
BECMG 2007/2009 4000 BR SCT006
BECMG 2009/2011 17013KT 9999 FEW030

Source NOAA


MET'MAP, your aeronautical weather chart ! - Copyright ORBIFLY December 2007

Programming & Development : Alexandra Zaïnal
Co-Developer : Marc-Olivier Méhu
Technical & hardware support : Manuel Goepfert
Concept & Financing : Baudouin d'Aumeries